Time;durP1;ratioP1;P1;durP2;ratioP2;P2;SDS_P1;SDS_P2;PMS_P1;PMS_P2;Temp;Humidity;BMP_temperature;BMP_pressure;BME280_temperature;BME280_humidity;BME280_pressure;Samples;Min_cycle;Max_cycle;Signal;HPM_P1;HPM_P2
2022/09/24 00:00:59;;;;;;;10.90;6.38;;;;;;;15.79;64.70;101252.84;5116322;28;20058;-60
2022/09/24 00:03:27;;;;;;;10.15;5.63;;;;;;;15.77;64.68;101263.94;5121046;27;20412;-60
2022/09/24 00:05:54;;;;;;;10.00;6.30;;;;;;;15.78;64.48;101260.16;5117572;27;20043;-60
2022/09/24 00:08:22;;;;;;;10.48;6.50;;;;;;;15.77;64.65;101252.25;5122472;27;20055;-60
2022/09/24 00:10:50;;;;;;;7.82;5.90;;;;;;;15.78;64.49;101248.50;5127318;27;20070;-60
2022/09/24 00:13:18;;;;;;;7.93;5.70;;;;;;;15.79;64.46;101244.72;5123739;27;20059;-60
2022/09/24 00:15:49;;;;;;;9.00;6.00;;;;;;;15.77;64.39;101246.84;5132505;27;20051;-60
2022/09/24 00:18:20;;;;;;;7.40;5.50;;;;;;;15.77;64.71;101246.84;5124707;27;20057;-60
2022/09/24 00:20:48;;;;;;;8.23;5.85;;;;;;;15.75;64.55;101241.69;5125847;27;20061;-60
2022/09/24 00:23:16;;;;;;;7.65;5.60;;;;;;;15.75;64.37;101241.69;5113205;27;20489;-60
2022/09/24 00:28:31;;;;;;;8.13;6.30;;;;;;;15.75;64.49;101232.72;5123387;28;20048;-60
2022/09/24 00:31:05;;;;;;;9.18;6.15;;;;;;;15.74;64.26;101231.91;5128790;27;20047;-60
2022/09/24 00:33:35;;;;;;;8.50;5.90;;;;;;;15.74;64.46;101231.09;5126339;28;20047;-60
2022/09/24 00:36:05;;;;;;;10.10;6.20;;;;;;;15.74;64.50;101231.91;5127348;27;20059;-60
2022/09/24 00:38:33;;;;;;;9.55;6.80;;;;;;;15.74;64.63;101229.19;5127211;28;20043;-60
2022/09/24 00:41:02;;;;;;;8.90;6.57;;;;;;;15.73;64.19;101226.72;5126940;27;20062;-60
2022/09/24 00:43:32;;;;;;;7.22;5.25;;;;;;;15.72;64.49;101227.78;5113947;28;20054;-60
2022/09/24 00:46:08;;;;;;;7.75;6.03;;;;;;;15.71;64.24;101221.56;5121811;27;20054;-60
2022/09/24 00:48:39;;;;;;;7.73;5.43;;;;;;;15.72;64.32;101223.19;5128546;27;20048;-60
2022/09/24 00:51:09;;;;;;;8.70;6.15;;;;;;;15.72;64.26;101228.63;5126407;27;20055;-60
2022/09/24 00:53:37;;;;;;;10.13;6.13;;;;;;;15.70;64.50;101214.50;5124388;28;20600;-60
2022/09/24 00:56:08;;;;;;;9.57;6.90;;;;;;;15.70;64.75;101213.66;5113596;27;20040;-59
2022/09/24 00:58:36;;;;;;;7.78;5.90;;;;;;;15.69;64.45;101210.13;5113346;28;20112;-60
2022/09/24 01:01:07;;;;;;;7.30;5.43;;;;;;;15.70;64.59;101213.66;5125425;27;20044;-60
2022/09/24 01:03:41;;;;;;;7.68;5.63;;;;;;;15.68;64.35;101213.91;5133560;27;20043;-60
2022/09/24 01:06:09;;;;;;;8.30;6.38;;;;;;;15.68;64.55;101199.56;5122627;27;20111;-59
2022/09/24 01:08:37;;;;;;;8.07;6.30;;;;;;;15.67;64.28;101197.91;5132029;27;20502;-60
2022/09/24 01:11:18;;;;;;;9.07;6.22;;;;;;;15.67;64.16;101196.03;5115274;28;20062;-60
2022/09/24 01:14:04;;;;;;;11.02;6.43;;;;;;;15.66;64.36;101196.25;5123974;27;20048;-60
2022/09/24 01:16:45;;;;;;;8.07;6.25;;;;;;;15.66;64.49;101186.25;5124482;27;20081;-60
2022/09/24 01:19:45;;;;;;;8.32;6.20;;;;;;;15.64;64.42;101180.25;5119913;28;20061;-60
2022/09/24 01:22:25;;;;;;;11.90;6.20;;;;;;;15.62;64.61;101183.22;5119534;28;20052;-60
2022/09/24 01:25:01;;;;;;;8.20;6.05;;;;;;;15.63;64.29;101178.63;5116584;27;20050;-60
2022/09/24 01:27:51;;;;;;;7.70;5.80;;;;;;;15.61;64.41;101172.63;5113550;28;20040;-60
2022/09/24 01:30:21;;;;;;;9.43;6.22;;;;;;;15.60;64.14;101177.22;5132000;27;20054;-60
2022/09/24 01:32:53;;;;;;;8.70;6.10;;;;;;;15.60;64.21;101168.31;5118644;27;20206;-60
2022/09/24 01:35:25;;;;;;;8.63;6.00;;;;;;;15.60;64.07;101173.72;5119417;27;20040;-60
2022/09/24 01:37:56;;;;;;;7.75;5.72;;;;;;;15.58;64.06;101165.84;5117857;28;20055;-60
2022/09/24 01:40:27;;;;;;;9.27;6.15;;;;;;;15.58;63.97;101159.59;5125623;27;20052;-60
2022/09/24 01:42:58;;;;;;;9.45;6.22;;;;;;;15.58;64.10;101160.41;5125703;27;20044;-60
2022/09/24 01:45:30;;;;;;;9.43;6.13;;;;;;;15.56;63.93;101162.53;5123875;27;20049;-60
2022/09/24 01:48:00;;;;;;;9.68;5.88;;;;;;;15.57;63.99;101157.97;5124799;27;20073;-60
2022/09/24 01:50:33;;;;;;;11.13;7.15;;;;;;;15.56;64.00;101157.09;5112305;27;20048;-60
2022/09/24 01:53:05;;;;;;;10.93;6.40;;;;;;;15.47;64.14;101145.03;5121611;27;20046;-60
2022/09/24 01:55:38;;;;;;;9.93;6.13;;;;;;;15.56;63.96;101159.00;5124142;27;20051;-60
2022/09/24 01:58:10;;;;;;;9.10;6.03;;;;;;;15.56;64.05;101153.56;5122621;28;20052;-60
2022/09/24 02:00:43;;;;;;;8.85;6.65;;;;;;;15.54;64.42;101158.41;5121932;28;20225;-60
2022/09/24 02:03:15;;;;;;;8.85;6.43;;;;;;;15.54;64.46;101156.53;5126295;27;20043;-60
2022/09/24 02:05:48;;;;;;;8.55;6.22;;;;;;;15.53;64.32;101154.06;5113307;27;20048;-60
2022/09/24 02:08:19;;;;;;;8.85;6.35;;;;;;;15.36;64.42;101129.69;5128727;27;20047;-60
2022/09/24 02:10:52;;;;;;;8.52;6.40;;;;;;;15.52;64.30;101152.44;5123818;28;20039;-60
2022/09/24 02:13:24;;;;;;;11.40;6.55;;;;;;;15.52;64.44;101141.59;5123806;28;20048;-60
2022/09/24 02:15:58;;;;;;;8.07;6.35;;;;;;;15.42;64.39;101130.59;5121770;27;20043;-60
2022/09/24 02:18:32;;;;;;;9.88;6.40;;;;;;;15.52;64.25;101145.13;5118016;27;20044;-60
2022/09/24 02:21:05;;;;;;;8.48;6.18;;;;;;;15.52;64.53;101141.59;5117226;27;20044;-60
2022/09/24 02:23:38;;;;;;;9.02;6.68;;;;;;;15.52;64.46;101144.31;5109476;28;20417;-60
2022/09/24 02:26:06;;;;;;;10.27;6.97;;;;;;;15.51;64.43;101143.47;5118003;27;20047;-60
2022/09/24 02:28:34;;;;;;;8.93;6.40;;;;;;;15.51;64.24;101138.06;5114100;28;20417;-60
2022/09/24 02:31:08;;;;;;;10.93;7.00;;;;;;;15.51;64.37;101135.34;5124231;28;20051;-60
2022/09/24 02:36:24;;;;;;;9.75;6.38;;;;;;;15.50;64.54;101136.44;5117246;27;20054;-59
2022/09/24 02:38:52;;;;;;;9.65;7.03;;;;;;;15.50;64.29;101139.13;5118570;27;20069;-60
2022/09/24 02:41:22;;;;;;;11.75;7.70;;;;;;;15.49;64.70;101134.78;5136158;27;20456;-60
2022/09/24 02:43:50;;;;;;;9.13;6.93;;;;;;;15.49;64.39;101137.50;5122628;28;20135;-60
2022/09/24 02:46:20;;;;;;;10.48;7.47;;;;;;;15.50;64.80;101132.91;5117305;28;20062;-60
2022/09/24 02:48:47;;;;;;;9.48;6.93;;;;;;;15.48;64.53;101135.84;5112873;28;20054;-60
2022/09/24 02:51:15;;;;;;;9.85;7.53;;;;;;;15.49;64.81;101132.06;5123485;27;20050;-60
2022/09/24 02:53:43;;;;;;;11.15;7.40;;;;;;;15.47;64.91;101131.50;5115261;28;20057;-60
2022/09/24 02:56:11;;;;;;;10.68;7.38;;;;;;;15.48;64.78;101125.00;5113360;28;20046;-60
2022/09/24 02:58:39;;;;;;;11.85;7.90;;;;;;;15.47;64.73;101128.78;5121928;28;20058;-60
2022/09/24 03:01:07;;;;;;;12.80;8.30;;;;;;;15.46;64.80;101123.63;5116066;28;20044;-60
2022/09/24 03:03:36;;;;;;;10.25;7.88;;;;;;;15.45;64.79;101125.50;5117911;28;20048;-60
2022/09/24 03:06:04;;;;;;;12.50;8.23;;;;;;;15.45;64.79;101130.09;5126811;27;20123;-60
2022/09/24 03:08:32;;;;;;;10.88;7.55;;;;;;;15.45;65.04;101130.94;5125674;28;20055;-60
2022/09/24 03:11:00;;;;;;;10.30;7.38;;;;;;;15.44;64.74;101125.75;5130559;27;20052;-60
2022/09/24 03:13:28;;;;;;;10.35;7.53;;;;;;;15.43;64.75;101126.81;5128544;27;20058;-60
2022/09/24 03:15:56;;;;;;;12.15;7.85;;;;;;;15.44;64.85;101131.16;5126981;27;20055;-60
2022/09/24 03:18:24;;;;;;;13.82;8.90;;;;;;;15.43;65.09;101122.22;5133838;27;20061;-60
2022/09/24 03:20:57;;;;;;;10.65;7.75;;;;;;;15.42;64.89;101120.59;5128474;27;20050;-60
2022/09/24 03:23:25;;;;;;;9.88;7.30;;;;;;;15.43;64.82;101124.94;5116338;27;20051;-60
2022/09/24 03:25:53;;;;;;;9.75;6.90;;;;;;;15.34;64.67;101106.63;5119436;27;20047;-60
2022/09/24 03:28:21;;;;;;;10.52;7.45;;;;;;;15.42;64.39;101114.34;5129110;27;20055;-59
2022/09/24 03:31:01;;;;;;;11.38;7.60;;;;;;;15.41;64.40;101110.81;5121557;27;20047;-60
2022/09/24 03:33:31;;;;;;;15.00;7.43;;;;;;;15.40;64.34;101111.88;5122835;27;20046;-60
2022/09/24 03:36:02;;;;;;;13.88;7.40;;;;;;;15.41;64.61;101113.53;5123634;27;20495;-60
2022/09/24 03:38:30;;;;;;;12.15;7.13;;;;;;;15.41;64.33;101115.41;5121930;27;20048;-60
2022/09/24 03:40:59;;;;;;;11.23;8.23;;;;;;;15.39;64.44;101106.72;5124871;27;20048;-60
2022/09/24 03:43:27;;;;;;;9.80;7.15;;;;;;;15.39;64.30;101107.53;5126363;27;20052;-60
2022/09/24 03:45:55;;;;;;;12.75;8.00;;;;;;;15.39;64.44;101104.81;5117063;27;20405;-60
2022/09/24 03:48:24;;;;;;;15.73;8.18;;;;;;;15.39;64.83;101104.81;5125286;27;20048;-60
2022/09/24 03:50:52;;;;;;;10.50;7.75;;;;;;;15.40;64.78;101108.34;5116270;27;20512;-60
2022/09/24 03:53:22;;;;;;;14.55;9.30;;;;;;;15.39;64.95;101101.31;5113495;28;20051;-60
2022/09/24 03:55:54;;;;;;;11.32;8.00;;;;;;;15.39;65.23;101104.00;5124018;27;20507;-60
2022/09/24 03:58:22;;;;;;;12.70;7.97;;;;;;;15.37;65.10;101098.84;5120364;28;20061;-60
2022/09/24 04:00:52;;;;;;;11.52;7.63;;;;;;;15.37;64.74;101092.59;5123262;28;20047;-60
2022/09/24 04:03:20;;;;;;;8.73;7.05;;;;;;;15.35;64.80;101087.44;5116309;27;20058;-60
2022/09/24 04:05:50;;;;;;;11.38;7.68;;;;;;;15.37;64.69;101096.13;5121613;27;20055;-60
2022/09/24 04:08:18;;;;;;;11.55;6.70;;;;;;;15.36;64.65;101089.06;5125567;27;20500;-60
2022/09/24 04:10:48;;;;;;;9.45;7.07;;;;;;;15.36;64.81;101083.66;5131920;27;20141;-60
2022/09/24 04:13:16;;;;;;;12.20;8.25;;;;;;;15.36;64.80;101080.94;5127188;27;20040;-60
2022/09/24 04:15:44;;;;;;;10.30;7.22;;;;;;;15.36;64.81;101080.94;5122867;27;20048;-60
2022/09/24 04:18:12;;;;;;;12.02;6.70;;;;;;;15.38;64.80;101086.94;5120476;27;20047;-60
2022/09/24 04:20:40;;;;;;;11.27;7.65;;;;;;;15.36;64.90;101078.25;5116428;27;20589;-60
2022/09/24 04:23:09;;;;;;;9.57;6.72;;;;;;;15.35;64.63;101076.59;5124767;27;20047;-60
2022/09/24 04:25:39;;;;;;;10.40;7.72;;;;;;;15.35;64.58;101071.19;5111486;28;20052;-60
2022/09/24 04:28:09;;;;;;;9.60;7.13;;;;;;;15.36;64.72;101078.25;5122576;28;20068;-60
2022/09/24 04:30:38;;;;;;;11.55;7.57;;;;;;;15.36;64.96;101078.25;5115586;27;20047;-60
2022/09/24 04:33:07;;;;;;;9.48;6.13;;;;;;;15.35;64.73;101076.59;5126432;28;20127;-60
2022/09/24 04:35:35;;;;;;;12.15;7.15;;;;;;;15.35;64.53;101071.19;5121119;27;20051;-60
2022/09/24 04:38:04;;;;;;;9.68;6.80;;;;;;;15.35;64.53;101079.31;5124088;27;20036;-60
2022/09/24 04:40:32;;;;;;;10.30;6.93;;;;;;;15.35;64.54;101071.19;5126241;27;20051;-60
2022/09/24 04:43:00;;;;;;;9.32;7.15;;;;;;;15.34;64.51;101077.66;5120895;28;20127;-60
2022/09/24 04:45:29;;;;;;;10.20;7.50;;;;;;;15.35;64.55;101078.50;5119219;27;20044;-60
2022/09/24 04:47:57;;;;;;;13.07;6.97;;;;;;;15.34;64.82;101076.84;5124827;27;20058;-60
2022/09/24 04:50:27;;;;;;;10.52;7.22;;;;;;;15.34;64.83;101074.13;5126348;27;20063;-60
2022/09/24 04:52:55;;;;;;;10.00;6.93;;;;;;;15.33;64.91;101084.16;5137489;27;20057;-60
2022/09/24 04:55:25;;;;;;;12.23;7.45;;;;;;;15.32;64.81;101076.28;5124202;27;20050;-60
2022/09/24 04:57:56;;;;;;;9.82;7.65;;;;;;;15.33;64.78;101073.31;5119653;27;20054;-60
2022/09/24 05:00:25;;;;;;;13.63;6.93;;;;;;;15.32;64.70;101078.97;5132777;27;20053;-60
2022/09/24 05:02:59;;;;;;;10.30;7.03;;;;;;;15.31;64.69;101078.16;5122596;27;20054;-60
2022/09/24 05:05:27;;;;;;;10.90;6.75;;;;;;;15.30;65.10;101082.75;5131905;27;20051;-60
2022/09/24 05:07:55;;;;;;;10.27;7.00;;;;;;;15.29;65.01;101074.88;5122473;27;20079;-61
2022/09/24 05:10:23;;;;;;;9.57;6.80;;;;;;;15.30;64.99;101088.19;5115022;27;20055;-61
2022/09/24 05:12:51;;;;;;;11.35;7.63;;;;;;;15.27;64.75;101077.00;5136842;27;20054;-61
2022/09/24 05:15:19;;;;;;;10.27;6.25;;;;;;;15.29;64.81;101086.53;5117994;28;20047;-61
2022/09/24 05:17:47;;;;;;;9.60;6.47;;;;;;;15.28;64.60;101076.78;5112752;27;20048;-61
2022/09/24 05:20:17;;;;;;;13.10;6.07;;;;;;;15.30;64.83;101079.22;5123093;27;20052;-60
2022/09/24 05:22:46;;;;;;;8.68;5.90;;;;;;;15.30;64.50;101081.94;5111429;28;20066;-62
2022/09/24 05:25:16;;;;;;;8.55;5.97;;;;;;;15.29;64.44;101067.56;5122570;28;20051;-58
2022/09/24 05:27:44;;;;;;;9.18;6.13;;;;;;;15.28;64.68;101076.78;5126436;27;20044;-62
2022/09/24 05:30:12;;;;;;;10.50;6.65;;;;;;;15.28;64.69;101084.91;5124185;28;20047;-59
2022/09/24 05:32:40;;;;;;;7.85;5.93;;;;;;;15.28;64.41;101082.19;5118014;27;20055;-59
2022/09/24 05:35:09;;;;;;;9.50;6.60;;;;;;;15.28;64.56;101084.91;5123420;28;20043;-59
2022/09/24 05:37:38;;;;;;;9.93;6.97;;;;;;;15.28;64.81;101084.91;5126372;28;20466;-59
2022/09/24 05:42:49;;;;;;;11.52;7.07;;;;;;;15.26;64.60;101092.44;5124260;27;20108;-59
2022/09/24 05:45:17;;;;;;;11.50;7.40;;;;;;;15.26;64.80;101087.03;5122195;28;20048;-58
2022/09/24 05:47:46;;;;;;;9.98;7.07;;;;;;;15.26;64.93;101084.31;5110229;28;20058;-59
2022/09/24 05:50:14;;;;;;;10.85;7.28;;;;;;;15.26;65.09;101088.91;5105001;28;20051;-59
2022/09/24 05:52:45;;;;;;;11.63;7.88;;;;;;;15.25;65.02;101098.94;5120887;27;20053;-58
2022/09/24 05:55:13;;;;;;;10.75;7.07;;;;;;;15.19;65.30;101083.66;5127932;27;20047;-58
2022/09/24 05:57:41;;;;;;;9.38;6.78;;;;;;;15.25;64.89;101093.50;5108257;28;20139;-58
2022/09/24 06:00:09;;;;;;;8.57;6.28;;;;;;;15.25;64.96;101095.41;5123157;27;20051;-59
2022/09/24 06:02:37;;;;;;;9.60;6.72;;;;;;;15.25;64.93;101095.41;5122300;28;20044;-59
2022/09/24 06:05:06;;;;;;;8.60;5.75;;;;;;;15.16;64.67;101076.03;5114166;27;20063;-59
2022/09/24 06:07:34;;;;;;;9.70;6.55;;;;;;;15.25;64.84;101098.09;5119598;28;20086;-59
2022/09/24 06:10:04;;;;;;;9.70;6.90;;;;;;;15.24;64.89;101091.06;5124323;27;20094;-61
2022/09/24 06:12:33;;;;;;;10.15;7.40;;;;;;;15.24;66.96;101099.16;4764000;27;10000487;-59
2022/09/24 06:15:02;;;;;;;11.90;7.85;;;;;;;15.22;66.27;101096.72;5118713;27;20344;-61
2022/09/24 06:17:31;;;;;;;10.02;7.05;;;;;;;15.23;65.92;101095.66;5119346;27;20062;-59
2022/09/24 06:19:59;;;;;;;12.00;7.43;;;;;;;15.22;65.92;101099.41;5108191;27;20089;-60
2022/09/24 06:22:27;;;;;;;9.82;7.10;;;;;;;15.23;65.46;101103.78;5123030;28;20047;-59
2022/09/24 06:24:55;;;;;;;10.40;6.90;;;;;;;15.15;65.85;101095.22;5124679;28;20047;-59
2022/09/24 06:27:24;;;;;;;9.57;6.55;;;;;;;15.24;65.81;101112.72;5121158;28;20379;-59
2022/09/24 06:29:52;;;;;;;9.77;7.10;;;;;;;15.24;65.56;101101.88;5106343;28;20058;-59
2022/09/24 06:32:20;;;;;;;9.57;6.97;;;;;;;15.23;65.44;101106.47;5123344;28;20074;-59
2022/09/24 06:34:48;;;;;;;9.00;6.72;;;;;;;15.24;65.58;101110.00;5117827;28;20127;-59
2022/09/24 06:37:16;;;;;;;12.25;7.45;;;;;;;15.24;65.54;101110.81;5124767;28;20055;-60
2022/09/24 06:39:43;;;;;;;9.80;6.60;;;;;;;15.25;65.48;101111.66;5124702;28;20057;-60
2022/09/24 06:42:11;;;;;;;8.00;5.95;;;;;;;15.24;65.19;101113.53;5121275;28;20048;-59
2022/09/24 06:44:41;;;;;;;10.20;6.75;;;;;;;15.25;65.27;101117.88;5123134;28;20054;-60
2022/09/24 06:47:09;;;;;;;8.48;6.05;;;;;;;15.26;65.20;101113.28;5117012;28;20059;-59
2022/09/24 06:49:37;;;;;;;10.93;6.72;;;;;;;15.25;65.09;101119.75;5117369;28;20036;-59
2022/09/24 06:52:05;;;;;;;8.23;6.30;;;;;;;15.24;65.21;101118.13;5123696;28;20048;-59
2022/09/24 06:54:33;;;;;;;12.23;6.38;;;;;;;15.23;65.02;101122.72;5125196;28;20051;-59
2022/09/24 06:57:01;;;;;;;8.85;6.00;;;;;;;15.22;65.28;101118.38;5120853;28;20475;-59
2022/09/24 06:59:28;;;;;;;18.13;7.45;;;;;;;15.23;65.22;101119.19;5124039;28;20040;-59
2022/09/24 07:01:58;;;;;;;10.82;6.45;;;;;;;15.22;65.29;101118.38;5119967;28;20059;-59
2022/09/24 07:04:26;;;;;;;8.95;6.05;;;;;;;15.23;64.98;101120.00;5124401;28;20134;-60
2022/09/24 07:09:40;;;;;;;11.15;6.65;;;;;;;15.22;65.23;101131.91;5122874;28;20040;-59
2022/09/24 07:12:08;;;;;;;9.43;6.82;;;;;;;15.22;65.37;101128.38;5117855;28;20048;-59
2022/09/24 07:14:35;;;;;;;11.77;6.38;;;;;;;15.21;65.24;101122.16;5125045;28;20052;-59
2022/09/24 07:17:05;;;;;;;10.43;6.25;;;;;;;15.21;65.32;101124.84;5124845;28;20048;-59
2022/09/24 07:19:32;;;;;;;8.88;6.07;;;;;;;15.21;64.97;101129.44;5108387;28;20241;-59
2022/09/24 07:22:00;;;;;;;11.13;6.63;;;;;;;15.20;65.43;101134.03;5115703;28;20107;-59
2022/09/24 07:24:28;;;;;;;8.20;6.50;;;;;;;15.21;65.21;101132.97;5123250;28;20054;-59
2022/09/24 07:26:56;;;;;;;10.05;5.95;;;;;;;15.21;65.13;101129.44;5125788;28;20044;-59
2022/09/24 07:29:23;;;;;;;8.27;6.00;;;;;;;15.22;65.10;101134.63;5127032;28;20054;-59
2022/09/24 07:31:51;;;;;;;8.63;5.95;;;;;;;15.23;64.99;101135.44;5122059;28;20116;-59
2022/09/24 07:34:21;;;;;;;8.23;5.72;;;;;;;15.25;64.86;101144.97;5123297;28;20047;-59
2022/09/24 07:36:49;;;;;;;9.27;6.47;;;;;;;15.21;64.86;101130.28;5112701;28;20048;-59
2022/09/24 07:39:18;;;;;;;9.95;6.53;;;;;;;15.30;65.08;101136.91;5124716;28;20096;-59
2022/09/24 07:41:46;;;;;;;8.93;6.25;;;;;;;15.30;65.18;101142.34;5119545;28;20513;-59
2022/09/24 07:44:14;;;;;;;8.80;5.80;;;;;;;15.33;64.93;101141.03;5111482;28;20051;-59
2022/09/24 07:46:42;;;;;;;11.85;6.53;;;;;;;15.34;65.73;101139.97;5117456;28;20055;-60
2022/09/24 07:49:10;;;;;;;9.32;5.97;;;;;;;15.35;65.22;101148.91;5128437;28;20126;-59
2022/09/24 07:51:39;;;;;;;12.75;7.18;;;;;;;15.35;65.26;101149.72;5117719;27;20051;-58
2022/09/24 07:54:07;;;;;;;10.23;6.00;;;;;;;15.36;65.50;101148.66;5124907;27;20065;-59
2022/09/24 07:56:35;;;;;;;11.82;6.38;;;;;;;15.37;65.43;101150.28;5131124;27;20050;-60
2022/09/24 07:59:05;;;;;;;10.98;6.47;;;;;;;15.36;65.34;101150.53;5121308;28;20139;-59
2022/09/24 08:01:34;;;;;;;13.20;6.90;;;;;;;15.37;65.62;101154.91;5121109;28;20054;-59
2022/09/24 08:04:03;;;;;;;10.02;6.18;;;;;;;15.39;65.24;101156.28;5122921;28;20048;-59
2022/09/24 08:06:32;;;;;;;9.65;6.15;;;;;;;15.42;65.46;101158.50;5127925;27;20048;-59
2022/09/24 08:09:07;;;;;;;9.32;6.20;;;;;;;15.45;65.20;101158.00;5113399;28;20050;-59
2022/09/24 08:11:35;;;;;;;8.50;5.35;;;;;;;15.48;64.96;101160.22;5119882;27;20051;-59
2022/09/24 08:14:03;;;;;;;9.32;6.28;;;;;;;15.49;65.03;101159.16;5115931;28;20047;-58
2022/09/24 08:16:31;;;;;;;8.95;6.53;;;;;;;15.51;65.11;101162.44;5110414;28;20121;-58
2022/09/24 08:18:59;;;;;;;7.53;5.70;;;;;;;15.50;65.03;101163.50;5120028;28;20047;-58
2022/09/24 08:21:27;;;;;;;10.93;6.13;;;;;;;15.50;65.16;101159.97;5119778;27;20052;-59
2022/09/24 08:23:56;;;;;;;9.25;5.72;;;;;;;15.49;65.19;101169.19;5135683;27;20051;-59
2022/09/24 08:26:29;;;;;;;9.80;6.40;;;;;;;15.41;65.24;101153.34;5127049;28;20530;-58
2022/09/24 08:28:57;;;;;;;10.68;5.97;;;;;;;15.50;65.16;101176.22;5123198;28;20050;-58
2022/09/24 08:31:25;;;;;;;8.07;5.82;;;;;;;15.48;65.47;101170.25;5117307;27;20051;-60
2022/09/24 08:33:53;;;;;;;9.60;6.60;;;;;;;15.48;65.62;101178.38;5119081;28;20075;-58
2022/09/24 08:36:20;;;;;;;8.88;5.57;;;;;;;15.48;65.55;101173.78;5117216;27;20051;-59
2022/09/24 08:38:48;;;;;;;8.90;5.85;;;;;;;15.47;65.54;101165.88;5126518;27;20477;-59
2022/09/24 08:41:32;;;;;;;9.68;5.95;;;;;;;15.46;65.73;101175.09;5123598;27;20055;-58
2022/09/24 08:44:05;;;;;;;9.15;5.35;;;;;;;15.45;65.57;101178.84;5126949;28;20058;-58
2022/09/24 08:49:30;;;;;;;7.15;5.45;;;;;;;15.45;65.56;101178.84;5125130;27;20059;-59
2022/09/24 08:52:09;;;;;;;9.80;5.47;;;;;;;15.45;65.69;101184.28;5122714;28;20061;-59
2022/09/24 08:54:38;;;;;;;7.55;5.45;;;;;;;15.45;65.81;101178.84;5127104;28;20047;-59
2022/09/24 08:57:14;;;;;;;7.63;5.32;;;;;;;15.45;65.46;101189.69;5127189;28;20130;-60
2022/09/24 08:59:46;;;;;;;8.52;5.80;;;;;;;15.44;65.83;101183.47;5117200;28;20043;-59
2022/09/24 09:02:28;;;;;;;10.55;5.93;;;;;;;15.44;65.72;101186.16;5125757;28;20044;-59
2022/09/24 09:05:05;;;;;;;11.02;6.35;;;;;;;15.45;65.63;101192.41;5122784;28;20176;-59
2022/09/24 09:07:40;;;;;;;7.97;5.68;;;;;;;15.45;65.84;101193.22;5115942;28;20051;-59
2022/09/24 09:10:12;;;;;;;8.25;5.05;;;;;;;15.44;65.59;101183.47;5122982;28;20043;-59
2022/09/24 09:12:42;;;;;;;8.25;5.45;;;;;;;15.45;65.83;101185.09;5122420;28;20048;-59
2022/09/24 09:15:16;;;;;;;9.80;5.20;;;;;;;15.45;65.69;101187.81;5110158;28;20067;-59
2022/09/24 09:17:49;;;;;;;8.85;5.82;;;;;;;15.45;65.84;101190.50;5123837;28;20052;-59
2022/09/24 09:20:19;;;;;;;8.43;4.97;;;;;;;15.47;65.64;101187.56;5111893;28;20044;-59
2022/09/24 09:22:49;;;;;;;7.43;4.78;;;;;;;15.46;65.80;101181.31;5111036;28;20131;-59
2022/09/24 09:25:22;;;;;;;10.18;6.07;;;;;;;15.47;65.81;101191.09;5112131;27;20044;-59
2022/09/24 09:27:53;;;;;;;8.80;5.93;;;;;;;15.46;65.96;101189.44;5118444;27;20044;-59
2022/09/24 09:30:22;;;;;;;7.85;5.30;;;;;;;15.44;66.10;101188.06;5125945;28;20051;-60
2022/09/24 09:33:20;;;;;;;8.05;5.38;;;;;;;15.46;66.08;101191.34;5114949;27;20056;-59
2022/09/24 09:35:51;;;;;;;;;;;;;;;15.46;66.03;101197.56;5115706;27;20048;-59
2022/09/24 09:38:25;;;;;;;6.25;4.40;;;;;;;15.49;66.07;101194.38;5125222;27;20010;-60
2022/09/24 09:41:00;;;;;;;6.88;4.95;;;;;;;15.49;66.04;101193.56;5126887;27;20046;-59
2022/09/24 09:43:28;;;;;;;8.68;5.45;;;;;;;15.49;66.23;101193.56;5119844;28;20044;-59
2022/09/24 09:46:07;;;;;;;9.00;4.97;;;;;;;15.49;66.43;101196.25;5111884;28;20046;-59
2022/09/24 09:48:44;;;;;;;9.65;5.78;;;;;;;15.48;66.81;101200.84;4760568;28;10001905;-59
2022/09/24 09:51:19;;;;;;;9.80;6.20;;;;;;;15.47;66.36;101193.81;5118094;28;20058;-59
2022/09/24 09:53:54;;;;;;;8.55;5.20;;;;;;;15.47;66.58;101188.38;5119047;27;20055;-59
2022/09/24 09:56:26;;;;;;;8.40;5.15;;;;;;;15.48;66.30;101192.72;5115092;28;20039;-59
2022/09/24 09:59:03;;;;;;;6.03;4.70;;;;;;;15.50;66.08;101195.19;5121878;28;20047;-59
2022/09/24 10:01:34;;;;;;;8.57;6.00;;;;;;;15.49;66.09;101194.38;5118615;27;20044;-59
2022/09/24 10:04:03;;;;;;;8.90;5.50;;;;;;;15.51;66.44;101194.13;5120980;27;20058;-59
2022/09/24 10:06:33;;;;;;;8.30;5.30;;;;;;;15.52;66.43;101203.91;5114076;28;20138;-59
2022/09/24 10:09:12;;;;;;;7.15;5.40;;;;;;;15.54;66.35;101199.88;5122587;27;20366;-59
2022/09/24 10:11:41;;;;;;;7.97;5.15;;;;;;;15.48;66.55;101187.31;5118925;27;20050;-59
2022/09/24 10:14:11;;;;;;;8.93;5.60;;;;;;;15.57;66.02;101194.00;5116092;28;20078;-59
2022/09/24 10:16:43;;;;;;;8.23;5.68;;;;;;;15.57;66.57;101196.72;5120253;27;20056;-58
2022/09/24 10:19:16;;;;;;;6.78;4.90;;;;;;;15.58;66.38;101192.13;5115906;28;20393;-58
2022/09/24 10:21:44;;;;;;;8.43;5.97;;;;;;;15.59;66.53;101199.16;5112169;28;20044;-58
2022/09/24 10:24:16;;;;;;;7.53;5.22;;;;;;;15.58;66.51;101190.22;5122443;27;20054;-59
2022/09/24 10:26:45;;;;;;;6.90;4.85;;;;;;;15.60;66.54;101192.69;5112201;28;20054;-59
2022/09/24 10:32:03;;;;;;;8.77;5.80;;;;;;;15.52;66.54;101180.34;5111399;28;20047;-58
2022/09/24 10:34:31;;;;;;;8.10;5.68;;;;;;;15.61;66.57;101189.69;5122319;28;20039;-59
2022/09/24 10:37:01;;;;;;;9.13;5.32;;;;;;;15.61;66.52;101183.47;5124649;28;20062;-58
2022/09/24 10:39:34;;;;;;;7.30;5.18;;;;;;;15.62;66.39;101182.38;5116633;27;20071;-58
2022/09/24 10:42:01;;;;;;;5.75;4.28;;;;;;;15.63;66.56;101181.31;5122025;28;20043;-59
2022/09/24 10:44:35;;;;;;;8.57;6.13;;;;;;;15.64;66.67;101185.66;5130276;27;20058;-58
2022/09/24 10:47:25;;;;;;;9.25;5.25;;;;;;;15.65;66.87;101186.50;5121481;28;20134;-58
2022/09/24 10:50:07;;;;;;;7.22;4.93;;;;;;;15.67;66.38;101187.06;5125026;28;20062;-58
2022/09/24 10:52:44;;;;;;;6.32;4.38;;;;;;;15.67;66.67;101187.06;5112380;28;20116;-59
2022/09/24 10:55:25;;;;;;;9.00;5.53;;;;;;;15.68;66.67;101194.13;5115088;27;20047;-59
2022/09/24 10:58:02;;;;;;;8.93;5.55;;;;;;;15.69;66.93;101193.06;5116253;28;20059;-59
2022/09/24 11:00:40;;;;;;;6.96;5.00;;;;;;;15.68;66.74;101196.84;4769290;28;10000712;-58
2022/09/24 11:03:41;;;;;;;8.25;5.82;;;;;;;15.69;67.12;101201.19;5113904;28;22002;-58
2022/09/24 11:06:18;;;;;;;8.50;6.15;;;;;;;15.69;67.13;101190.34;5114576;28;20062;-59
2022/09/24 11:09:03;;;;;;;;;;;;;;;15.68;66.87;101200.38;5120073;28;20055;-58
2022/09/24 11:11:44;;;;;;;9.13;5.47;;;;;;;15.69;66.96;101196.59;5111698;28;19923;-58
2022/09/24 11:14:31;;;;;;;7.80;5.75;;;;;;;15.70;66.98;101202.84;5120364;28;20138;-58
2022/09/24 11:17:15;;;;;;;15.30;5.82;;;;;;;15.71;66.86;101204.47;5115778;28;20043;-58
2022/09/24 11:20:20;;;;;;;8.50;5.40;;;;;;;15.71;67.00;101205.28;5110753;28;20256;-58
2022/09/24 11:23:05;;;;;;;10.02;5.82;;;;;;;15.71;66.97;101208.00;5101159;28;20054;-59
2022/09/24 11:25:43;;;;;;;8.02;5.60;;;;;;;15.72;67.08;101198.00;5118573;27;20305;-58
2022/09/24 11:28:24;;;;;;;9.07;5.85;;;;;;;15.72;67.08;101200.69;5125884;27;20040;-58
2022/09/24 11:31:05;;;;;;;9.27;6.43;;;;;;;15.73;67.17;101205.06;5120676;28;20404;-58
2022/09/24 11:33:50;;;;;;;11.38;7.65;;;;;;;15.74;68.03;101201.28;5118245;27;20058;-58
2022/09/24 11:36:40;;;;;;;11.65;6.82;;;;;;;15.75;67.95;101198.31;5124471;28;20047;-58
2022/09/24 11:39:27;;;;;;;9.60;5.97;;;;;;;15.75;67.91;101201.03;5113739;28;20051;-59
2022/09/24 11:42:04;;;;;;;9.00;6.45;;;;;;;15.77;67.83;101196.19;5112768;28;20058;-58
2022/09/24 11:45:01;;;;;;;10.70;7.13;;;;;;;15.80;68.05;101198.41;5113524;27;20079;-59
2022/09/24 11:47:42;;;;;;;8.85;5.97;;;;;;;15.83;67.55;101205.22;5104748;28;20066;-58
2022/09/24 11:50:20;;;;;;;9.05;6.18;;;;;;;15.84;67.58;101198.72;5121220;27;20043;-58
2022/09/24 11:52:55;;;;;;;8.45;5.88;;;;;;;15.84;67.51;101194.13;5119589;28;20503;-58
2022/09/24 11:55:33;;;;;;;13.55;7.00;;;;;;;15.86;67.69;101202.00;5103996;28;20052;-58
2022/09/24 11:58:13;;;;;;;8.45;5.93;;;;;;;15.85;67.47;101194.94;5106848;28;20128;-58